MOL Performance — H9UW — position and weather

sailwx.info

Track history (hours):
 
Tides and Currents Weather Stations Pressure Air Temp Water Temp Dewpoint Dewpoint Depression Visibility Wind Speed Wind Dir Waves Ship Positions

MOL Performance

Last reported at 2017-Nov-17 00:53 UTC. Time now 2017-Nov-18 21:20 UTC.
Position N 35°60' W 005°12'.

Length 366 m; draft 15.1 m.

Type: Cargo ship. MMSI: 371274000.

Date/timePositionNaut miles runAvg speedWind from/ knotsBaromVisibWave heightAir tempDewpointWater temp
2017-Nov-17 00:53N 35°60' W 005°12'719.2
2017-Nov-17 00:31N 35°58' W 005°21'18617.4
2017-Nov-16 13:47N 36°31' W 009°08'517.7
2017-Nov-16 13:30N 36°33' W 009°14'916.6
2017-Nov-16 12:59N 36°38' W 009°23'918.2
2017-Nov-16 12:30N 36°45' W 009°30'1217.7
2017-Nov-16 11:49N 36°56' W 009°36'1118.1
2017-Nov-16 11:12N 37°07' W 009°39'518.2
2017-Nov-16 10:55N 37°12' W 009°41'718.2
2017-Nov-16 10:31N 37°19' W 009°43'918.2
2017-Nov-16 10:01N 37°27' W 009°46'918.5
2017-Nov-16 09:31N 37°36' W 009°49'918.5
2017-Nov-16 09:01N 37°45' W 009°52'918.5
2017-Nov-16 08:31N 37°54' W 009°55'918.4
2017-Nov-16 08:00N 38°03' W 009°58'918.6
2017-Nov-16 07:31N 38°12' W 010°01'918.4
2017-Nov-16 07:01N 38°21' W 010°02'918.2
2017-Nov-16 06:30N 38°30' W 010°04'918.1
2017-Nov-16 06:00N 38°39' W 010°06'918.0
2017-Nov-16 05:31N 38°48' W 010°07'918.5
2017-Nov-16 05:01N 38°58' W 010°07'918.4
2017-Nov-16 04:31N 39°07' W 010°06'918.5
2017-Nov-16 04:01N 39°16' W 010°05'918.6
2017-Nov-16 03:31N 39°25' W 010°03'918.1
2017-Nov-16 03:00N 39°34' W 010°04'1718.3
2017-Nov-16 02:05N 39°51' W 010°03'2218.5
2017-Nov-16 00:52N 40°13' W 010°06'718.4
2017-Nov-16 00:30N 40°20' W 010°07'918.7
2017-Nov-16 00:00N 40°29' W 010°07'43717.6
2017-Nov-14 23:10N 47°24' W 006°59'6817.9
2017-Nov-14 19:22N 48°25' W 006°11'919.1
2017-Nov-14 18:53N 48°33' W 006°06'1718.9
2017-Nov-14 17:58N 48°48' W 005°52'918.4
2017-Nov-14 17:27N 48°55' W 005°43'918.6
2017-Nov-14 16:58N 49°00' W 005°31'918.3
2017-Nov-14 16:28N 49°05' W 005°19'917.7
2017-Nov-14 15:57N 49°09' W 005°07'817.4
2017-Nov-14 15:28N 49°13' W 004°56'817.1
2017-Nov-14 14:59N 49°17' W 004°45'816.8
2017-Nov-14 14:29N 49°21' W 004°34'816.7
2017-Nov-14 14:00N 49°25' W 004°23'1016.7
2017-Nov-14 13:26N 49°30' W 004°10'716.7
2017-Nov-14 13:00N 49°34' W 004°01'917.0
2017-Nov-14 12:30N 49°38' W 003°49'917.3
2017-Nov-14 12:00N 49°41' W 003°37'918.0
2017-Nov-14 11:30N 49°45' W 003°24'918.5
2017-Nov-14 11:00N 49°50' W 003°12'918.9
2017-Nov-14 10:31N 49°55' W 003°00'1019.2
2017-Nov-14 10:00N 49°59' W 002°46'1019.3
2017-Nov-14 09:29N 50°01' W 002°31'1518.9
2017-Nov-14 08:42N 50°02' W 002°08'418.6
2017-Nov-14 08:29N 50°02' W 002°02'917.9
2017-Nov-14 08:01N 50°00' W 001°49'917.4
2017-Nov-14 07:31N 49°58' W 001°36'816.8
2017-Nov-14 07:00N 49°56' W 001°23'816.3
2017-Nov-14 06:31N 49°54' W 001°11'815.6
2017-Nov-14 06:00N 49°50' W 001°00'815.8
2017-Nov-14 05:31N 49°46' W 000°50'816.1
2017-Nov-14 05:00N 49°41' W 000°41'815.9
2017-Nov-14 04:31N 49°38' W 000°29'713.9
2017-Nov-14 04:00N 49°35' W 000°20'2 5.0
2017-Nov-14 03:31N 49°33' W 000°16'1 2.3
2017-Nov-14 03:01N 49°34' W 000°15'510.7
2017-Nov-14 02:31N 49°31' W 000°08'611.1
2017-Nov-14 02:01N 49°30' E 000°01'5 9.8
2017-Nov-14 01:31N 49°28' E 000°07'1 1.6
2017-Nov-14 00:58N 49°28' E 000°09'0 0.0
2017-Nov-14 00:28N 49°28' E 000°09'0 0.0
2017-Nov-13 23:58N 49°28' E 000°09'0 0.0
2017-Nov-13 23:28N 49°28' E 000°09'0 0.0
2017-Nov-13 22:58N 49°28' E 000°09'0 0.0
2017-Nov-13 22:28N 49°28' E 000°09'0 0.0
2017-Nov-13 21:58N 49°28' E 000°09'0 0.0
2017-Nov-13 01:58N 49°28' E 000°09'0 0.0
2017-Nov-13 01:28N 49°28' E 000°09'0 0.0
2017-Nov-13 00:58N 49°28' E 000°09'0 0.0
2017-Nov-13 00:31N 49°28' E 000°09'0 0.0
2017-Nov-13 00:00N 49°28' E 000°09'0 0.0
2017-Nov-12 23:31N 49°28' E 000°09'0 0.0
2017-Nov-12 22:58N 49°28' E 000°09'0 0.0
2017-Nov-12 22:28N 49°28' E 000°09'0 0.0
2017-Nov-12 22:01N 49°28' E 000°09'0 0.0
2017-Nov-12 21:28N 49°28' E 000°09'0 0.0
2017-Nov-12 20:58N 49°28' E 000°09'0 0.0
2017-Nov-12 20:28N 49°28' E 000°09'0 0.0
2017-Nov-12 20:01N 49°28' E 000°09'0 0.0
2017-Nov-12 19:28N 49°28' E 000°09'0 0.0
2017-Nov-12 18:57N 49°28' E 000°09'0 0.0
2017-Nov-12 18:27N 49°28' E 000°09'0 0.0
2017-Nov-12 18:01N 49°28' E 000°09'0 0.0
2017-Nov-12 17:30N 49°28' E 000°09'0 0.0
2017-Nov-12 16:58N 49°28' E 000°09'0 0.0
2017-Nov-12 16:27N 49°28' E 000°09'0 0.0
2017-Nov-12 15:58N 49°28' E 000°09'0 0.0
2017-Nov-12 15:31N 49°28' E 000°09'0 0.0
2017-Nov-12 15:01N 49°28' E 000°09'0 0.0
2017-Nov-12 14:28N 49°28' E 000°09'0 0.0
2017-Nov-12 14:01N 49°28' E 000°09'0 0.0
2017-Nov-12 13:31N 49°28' E 000°09'0 0.0
2017-Nov-12 12:58N 49°28' E 000°09'0 0.0
2017-Nov-12 12:31N 49°28' E 000°09'0 0.0
2017-Nov-12 12:00N 49°28' E 000°09'0 0.0
2017-Nov-12 11:28N 49°28' E 000°09'0 0.0
2017-Nov-12 11:00N 49°28' E 000°09'0 0.0
2017-Nov-12 10:30N 49°28' E 000°09'0 0.0
2017-Nov-12 10:00N 49°28' E 000°09'0 0.0
2017-Nov-12 09:30N 49°28' E 000°09'0 0.0
2017-Nov-12 09:01N 49°28' E 000°09'0 0.0
2017-Nov-12 08:30N 49°28' E 000°09'0 0.0
2017-Nov-12 08:00N 49°28' E 000°09'0 0.0
2017-Nov-12 07:30N 49°28' E 000°09'0 0.0
2017-Nov-12 07:00N 49°28' E 000°09'0 0.0
2017-Nov-12 06:30N 49°28' E 000°09'0 0.0
2017-Nov-12 05:57N 49°28' E 000°09'0 0.0
2017-Nov-12 05:31N 49°28' E 000°09'0 0.0
2017-Nov-12 05:00N 49°28' E 000°09'0 0.0
2017-Nov-12 04:30N 49°28' E 000°09'0 0.0
2017-Nov-12 04:00N 49°28' E 000°09'0 0.0
2017-Nov-12 03:27N 49°28' E 000°09'0 0.0
2017-Nov-12 03:01N 49°28' E 000°09'0 0.0
2017-Nov-12 02:31N 49°28' E 000°09'0 0.0
2017-Nov-12 02:01N 49°28' E 000°09'0 0.0
2017-Nov-12 01:30N 49°28' E 000°09'0 0.0
2017-Nov-12 01:00N 49°28' E 000°09'0 0.0
2017-Nov-12 00:30N 49°28' E 000°09'0 0.0
2017-Nov-12 00:00N 49°28' E 000°09'0 0.0
2017-Nov-11 23:30N 49°28' E 000°09'0 0.0
2017-Nov-11 22:57N 49°28' E 000°09'0 0.0
2017-Nov-11 22:30N 49°28' E 000°09'0 0.0
2017-Nov-11 22:00N 49°28' E 000°09'0 0.0
2017-Nov-11 21:30N 49°28' E 000°09'0 0.0
2017-Nov-11 21:00N 49°28' E 000°09'0 0.0
2017-Nov-11 20:30N 49°28' E 000°09'0 0.0
2017-Nov-11 20:00N 49°28' E 000°09'0 0.0
2017-Nov-11 19:30N 49°28' E 000°09'0 0.0
2017-Nov-11 19:00N 49°28' E 000°09'0 0.0
2017-Nov-11 18:30N 49°28' E 000°09'0 0.0
2017-Nov-11 18:00N 49°28' E 000°09'0 0.0
2017-Nov-11 17:30N 49°28' E 000°09'0 0.0
2017-Nov-11 17:00N 49°28' E 000°09'0 0.0
2017-Nov-11 16:30N 49°28' E 000°09'0 0.0
2017-Nov-11 16:00N 49°28' E 000°09'0 0.0
2017-Nov-11 15:30N 49°28' E 000°09'0 0.0
2017-Nov-11 15:00N 49°28' E 000°09'0 0.0
2017-Nov-11 14:30N 49°28' E 000°09'0 0.0
2017-Nov-11 14:00N 49°28' E 000°09'0 0.0
2017-Nov-11 13:30N 49°28' E 000°09'0 0.0
2017-Nov-11 13:00N 49°28' E 000°09'0 0.0
2017-Nov-11 12:30N 49°28' E 000°09'0 0.0
2017-Nov-11 12:00N 49°28' E 000°09'0 0.0
2017-Nov-11 11:30N 49°28' E 000°09'0 0.0
2017-Nov-11 11:00N 49°28' E 000°09'0 0.0
2017-Nov-11 10:30N 49°28' E 000°09'0 0.0
2017-Nov-11 10:00N 49°28' E 000°09'0 0.0
2017-Nov-11 09:30N 49°28' E 000°09'0 0.0
2017-Nov-11 09:00N 49°28' E 000°09'0 0.0
2017-Nov-11 08:30N 49°28' E 000°09'0 0.0
2017-Nov-11 08:00N 49°28' E 000°09'0 0.0
2017-Nov-11 07:30N 49°28' E 000°09'0 0.0
2017-Nov-11 07:00N 49°28' E 000°09'0 0.0
2017-Nov-11 06:30N 49°28' E 000°09'0 0.0
2017-Nov-11 06:00N 49°28' E 000°09'0 0.0
2017-Nov-11 05:30N 49°28' E 000°09'0 0.0
2017-Nov-11 05:00N 49°28' E 000°09'0 0.0
2017-Nov-11 04:30N 49°28' E 000°09'0 0.0
2017-Nov-11 04:00N 49°28' E 000°09'0 0.0
2017-Nov-11 03:30N 49°28' E 000°09'0 0.0
2017-Nov-11 03:00N 49°28' E 000°09'0 0.0
2017-Nov-11 02:30N 49°28' E 000°09'0 0.0
2017-Nov-11 02:00N 49°28' E 000°09'0 0.1
2017-Nov-11 01:30N 49°28' E 000°09'0 0.2
2017-Nov-11 01:00N 49°27' E 000°09'5 9.4
2017-Nov-11 00:30N 49°30' E 000°02'510.6
2017-Nov-11 00:00N 49°32' W 000°05'4 9.0
2017-Nov-10 23:30N 49°36' W 000°07'4 8.5
2017-Nov-10 23:00N 49°40' W 000°08'612.6
2017-Nov-10 22:30N 49°47' W 000°08'510.2
2017-Nov-10 22:00N 49°52' W 000°07'510.2
2017-Nov-10 21:30N 49°57' W 000°06'510.2
2017-Nov-10 21:00N 50°02' W 000°06'510.2
2017-Nov-10 20:30N 50°07' W 000°05'510.3
2017-Nov-10 20:00N 50°12' W 000°05'510.6
2017-Nov-10 19:30N 50°17' W 000°04'510.9
2017-Nov-10 19:00N 50°23' W 000°04'510.4
2017-Nov-10 18:30N 50°28' W 000°02'510.5
2017-Nov-10 18:00N 50°30' E 000°06'510.4
2017-Nov-10 17:30N 50°31' E 000°13'510.3
2017-Nov-10 17:00N 50°33' E 000°21'5 9.9
2017-Nov-10 16:30N 50°34' E 000°29'5 9.9
2017-Nov-10 16:00N 50°36' E 000°36'510.0
2017-Nov-10 15:30N 50°38' E 000°43'5 9.8
2017-Nov-10 15:00N 50°41' E 000°49'5 9.2
2017-Nov-10 14:30N 50°44' E 000°55'5 9.4
2017-Nov-10 14:00N 50°46' E 001°01'5 9.8
2017-Nov-10 13:30N 50°49' E 001°08'610.2
2017-Nov-10 12:56N 50°53' E 001°15'511.4
2017-Nov-10 12:30N 50°56' E 001°20'612.0
2017-Nov-10 12:00N 51°01' E 001°27'612.3
2017-Nov-10 11:30N 51°05' E 001°33'612.0
2017-Nov-10 11:00N 51°10' E 001°40'611.5
2017-Nov-10 10:30N 51°14' E 001°46'511.0
2017-Nov-10 10:00N 51°19' E 001°49'510.1
2017-Nov-10 09:30N 51°24' E 001°51'5 9.5
2017-Nov-10 09:00N 51°29' E 001°51'3 6.6
2017-Nov-10 08:30N 51°32' E 001°50'3 6.9
2017-Nov-10 08:00N 51°35' E 001°48'4 9.0
2017-Nov-10 07:30N 51°39' E 001°46'4 8.4
2017-Nov-10 07:00N 51°44' E 001°45'4 8.2
2017-Nov-10 06:30N 51°48' E 001°44'5 9.0
2017-Nov-10 06:00N 51°51' E 001°39'4 8.5
2017-Nov-10 05:30N 51°53' E 001°33'4 8.8
2017-Nov-10 05:00N 51°56' E 001°28'611.7
2017-Nov-10 04:30N 51°56' E 001°19'2 4.4
2017-Nov-10 04:00N 51°58' E 001°17'0 0.0
2017-Nov-10 03:29N 51°58' E 001°17'0 0.0
2017-Nov-10 02:59N 51°58' E 001°17'0 0.0
2017-Nov-10 02:29N 51°58' E 001°17'0 0.0
2017-Nov-10 01:58N 51°58' E 001°17'0 0.0
2017-Nov-10 01:25N 51°58' E 001°17'0 0.0
2017-Nov-10 00:58N 51°58' E 001°17'0 0.0
2017-Nov-10 00:28N 51°58' E 001°17'0 0.0
2017-Nov-09 23:58N 51°58' E 001°17'0 0.0
2017-Nov-09 23:29N 51°58' E 001°17'0 0.0
2017-Nov-09 22:58N 51°58' E 001°17'0 0.0
2017-Nov-09 22:29N 51°58' E 001°17'0 0.0
2017-Nov-09 21:58N 51°58' E 001°17'0 0.0
2017-Nov-09 21:28N 51°58' E 001°17'0 0.0
2017-Nov-09 20:58N 51°58' E 001°17'0 0.0
2017-Nov-09 20:28N 51°58' E 001°17'0 0.0
2017-Nov-09 19:58N 51°58' E 001°17'0 0.0
2017-Nov-09 19:29N 51°58' E 001°17'0 0.0
2017-Nov-09 18:58N 51°58' E 001°17'0 0.0
2017-Nov-09 18:28N 51°58' E 001°17'0 0.0
2017-Nov-09 17:58N 51°58' E 001°17'0 0.0
2017-Nov-09 17:28N 51°58' E 001°17'0 0.0
2017-Nov-09 16:58N 51°58' E 001°17'0 0.0
2017-Nov-09 16:28N 51°58' E 001°17'0 0.0
2017-Nov-09 15:58N 51°58' E 001°17'0 0.0
2017-Nov-09 15:28N 51°58' E 001°17'0 0.0
2017-Nov-09 14:59N 51°58' E 001°17'0 0.0
2017-Nov-09 14:28N 51°58' E 001°17'0 0.0
2017-Nov-09 13:58N 51°58' E 001°17'0 0.0
2017-Nov-09 13:28N 51°58' E 001°17'0 0.0
2017-Nov-09 12:58N 51°58' E 001°17'0 0.0
2017-Nov-09 12:28N 51°58' E 001°17'0 0.0
2017-Nov-09 11:58N 51°58' E 001°17'0 0.0
2017-Nov-09 11:28N 51°58' E 001°17'0 0.0
2017-Nov-09 10:58N 51°58' E 001°17'0 0.0
2017-Nov-09 10:28N 51°58' E 001°17'0 0.0
2017-Nov-09 09:58N 51°58' E 001°17'0 0.0
2017-Nov-09 09:28N 51°58' E 001°17'0 0.0
2017-Nov-09 08:58N 51°58' E 001°17'0 0.0
2017-Nov-09 08:28N 51°58' E 001°17'0 0.0
2017-Nov-09 07:58N 51°58' E 001°17'0 0.0
2017-Nov-09 07:28N 51°58' E 001°17'0 0.0
2017-Nov-09 06:58N 51°58' E 001°17'0 0.0
2017-Nov-09 06:28N 51°58' E 001°17'0 0.0
2017-Nov-09 05:58N 51°58' E 001°17'0 0.0
2017-Nov-09 05:28N 51°58' E 001°17'0 0.0
2017-Nov-09 04:58N 51°58' E 001°17'0 0.0
2017-Nov-09 04:28N 51°58' E 001°17'0 0.0
2017-Nov-09 03:58N 51°58' E 001°17'0 0.0
2017-Nov-09 03:28N 51°58' E 001°17'0 0.0
2017-Nov-09 02:58N 51°58' E 001°17'0 0.0
2017-Nov-09 02:28N 51°58' E 001°17'0 0.0
2017-Nov-09 01:58N 51°58' E 001°17'0 0.0
2017-Nov-09 01:28N 51°58' E 001°17'0 0.0
2017-Nov-09 00:58N 51°58' E 001°17'0 0.0
2017-Nov-09 00:28N 51°58' E 001°17'0 0.0
2017-Nov-08 23:58N 51°58' E 001°17'0 0.0
2017-Nov-08 23:28N 51°58' E 001°17'0 0.0
2017-Nov-08 22:58N 51°58' E 001°17'0 0.0
2017-Nov-08 22:28N 51°58' E 001°17'0 0.0
2017-Nov-08 21:58N 51°58' E 001°17'0 0.0
2017-Nov-08 21:28N 51°58' E 001°17'0 0.0
2017-Nov-08 20:58N 51°58' E 001°17'0 0.0
2017-Nov-08 20:28N 51°58' E 001°17'0 0.0
2017-Nov-08 19:58N 51°58' E 001°17'0 0.0
2017-Nov-08 19:28N 51°58' E 001°17'0 0.0
2017-Nov-08 18:58N 51°58' E 001°17'0 0.0
2017-Nov-08 18:28N 51°58' E 001°17'0 0.0
2017-Nov-08 17:58N 51°58' E 001°17'0 0.0
2017-Nov-08 17:28N 51°58' E 001°17'0 0.0
2017-Nov-08 16:58N 51°58' E 001°17'0 0.0
2017-Nov-08 16:28N 51°58' E 001°17'0 0.0
2017-Nov-08 15:58N 51°58' E 001°17'0 0.0
2017-Nov-08 15:28N 51°58' E 001°17'0 0.0
2017-Nov-08 14:58N 51°58' E 001°17'0 0.0
2017-Nov-08 14:28N 51°58' E 001°17'0 0.0
2017-Nov-08 13:58N 51°58' E 001°17'0 0.0
2017-Nov-08 13:28N 51°58' E 001°17'0 0.0
2017-Nov-08 12:58N 51°58' E 001°17'0 0.0
2017-Nov-08 12:28N 51°58' E 001°17'0 0.0
2017-Nov-08 11:58N 51°58' E 001°17'0 0.0
2017-Nov-08 11:28N 51°58' E 001°17'0 0.0
2017-Nov-08 11:00N 51°58' E 001°17'1 1.5
2017-Nov-08 10:30N 51°57' E 001°18'2 3.8
2017-Nov-08 10:00N 51°56' E 001°19'611.8
2017-Nov-08 09:31N 51°56' E 001°29'4 9.0
2017-Nov-08 09:00N 51°53' E 001°34'5 9.1
2017-Nov-08 08:30N 51°51' E 001°41'3 5.4
2017-Nov-08 08:01N 51°52' E 001°45'3 6.1
2017-Nov-08 07:30N 51°50' E 001°49'817.0
2017-Nov-08 07:01N 51°41' E 001°50'1122.9
2017-Nov-08 06:31N 51°30' E 001°54'1222.8
2017-Nov-08 06:00N 51°23' E 002°08'918.6
2017-Nov-08 05:30N 51°22' E 002°23'817.0
2017-Nov-08 05:00N 51°23' E 002°36'612.5
2017-Nov-08 04:30N 51°24' E 002°46'612.7
2017-Nov-08 04:00N 51°25' E 002°56'714.6
2017-Nov-08 03:30N 51°24' E 003°08'713.9
2017-Nov-08 03:00N 51°24' E 003°19'612.9
2017-Nov-08 02:30N 51°25' E 003°29'5 9.4
2017-Nov-08 02:00N 51°26' E 003°36'4 8.4
2017-Nov-08 01:30N 51°25' E 003°43'611.3
2017-Nov-08 01:00N 51°21' E 003°49'611.3
2017-Nov-08 00:30N 51°24' E 003°57'3 6.4
2017-Nov-08 00:00N 51°24' E 004°02'5 9.2
2017-Nov-07 23:30N 51°23' E 004°09'4 8.2
2017-Nov-07 23:00N 51°21' E 004°15'3 6.6
2017-Nov-07 22:30N 51°18' E 004°16'1 1.1
2017-Nov-07 22:00N 51°17' E 004°15'0 0.0
2017-Nov-07 21:30N 51°17' E 004°15'0 0.0
2017-Nov-07 21:00N 51°17' E 004°15'0 0.0
2017-Nov-07 20:24N 51°17' E 004°15'0 0.0
2017-Nov-07 20:00N 51°17' E 004°15'0 0.0
2017-Nov-07 19:30N 51°17' E 004°15'0 0.0
2017-Nov-07 18:57N 51°17' E 004°15'0 0.0
2017-Nov-07 18:30N 51°17' E 004°15'0 0.0
2017-Nov-07 18:00N 51°17' E 004°15'0 0.0
2017-Nov-07 17:30N 51°17' E 004°15'0 0.0
2017-Nov-07 17:00N 51°17' E 004°15'0 0.0
2017-Nov-07 16:30N 51°17' E 004°15'0 0.0
2017-Nov-07 15:57N 51°17' E 004°15'0 0.0
2017-Nov-07 15:24N 51°17' E 004°15'0 0.0
2017-Nov-07 15:00N 51°17' E 004°15'0 0.0
2017-Nov-07 14:30N 51°17' E 004°15'0 0.0
2017-Nov-07 14:00N 51°17' E 004°15'0 0.0
2017-Nov-07 13:30N 51°17' E 004°15'0 0.0
2017-Nov-07 13:00N 51°17' E 004°15'0 0.0
2017-Nov-07 12:30N 51°17' E 004°15'0 0.0
2017-Nov-07 12:00N 51°17' E 004°15'0 0.0
2017-Nov-07 11:30N 51°17' E 004°15'0 0.0
2017-Nov-07 11:00N 51°17' E 004°15'0 0.0
2017-Nov-07 10:30N 51°17' E 004°15'0 0.0
2017-Nov-07 10:00N 51°17' E 004°15'0 0.0
2017-Nov-07 09:27N 51°17' E 004°15'0 0.0
2017-Nov-07 09:00N 51°17' E 004°15'0 0.0
2017-Nov-07 08:30N 51°17' E 004°15'0 0.0
2017-Nov-07 08:00N 51°17' E 004°15'0 0.0
2017-Nov-07 07:30N 51°17' E 004°15'0 0.0
2017-Nov-07 07:00N 51°17' E 004°15'0 0.0
2017-Nov-07 06:30N 51°17' E 004°15'0 0.0
2017-Nov-07 06:00N 51°17' E 004°15'0 0.0
2017-Nov-07 05:30N 51°17' E 004°15'0 0.0
2017-Nov-07 05:00N 51°17' E 004°15'0 0.0
2017-Nov-07 04:30N 51°17' E 004°15'0 0.0
2017-Nov-07 04:00N 51°17' E 004°15'0 0.0
2017-Nov-07 03:30N 51°17' E 004°15'0 0.0
2017-Nov-07 03:00N 51°17' E 004°15'0 0.0
2017-Nov-07 02:27N 51°17' E 004°15'0 0.0
2017-Nov-07 02:00N 51°17' E 004°15'0 0.0
2017-Nov-07 01:30N 51°17' E 004°15'0 0.0
2017-Nov-07 01:00N 51°17' E 004°15'  
Track history (hours):
 
Tides and Currents Weather Stations Pressure Air Temp Water Temp Dewpoint Dewpoint Depression Visibility Wind Speed Wind Dir Waves Ship Positions

MOL Performance

Last reported at 2017-Nov-17 00:53 UTC. Time now 2017-Nov-18 21:20 UTC.
Position N 35°60' W 005°12'.

Length 366 m; draft 15.1 m.

Type: Cargo ship. MMSI: 371274000.

Date/timePositionNaut miles runAvg speedWind from/ knotsBaromVisibWave heightAir tempDewpointWater temp
2017-Nov-17 00:53N 35°60' W 005°12'719.2
2017-Nov-17 00:31N 35°58' W 005°21'18617.4
2017-Nov-16 13:47N 36°31' W 009°08'517.7
2017-Nov-16 13:30N 36°33' W 009°14'916.6
2017-Nov-16 12:59N 36°38' W 009°23'918.2
2017-Nov-16 12:30N 36°45' W 009°30'1217.7
2017-Nov-16 11:49N 36°56' W 009°36'1118.1
2017-Nov-16 11:12N 37°07' W 009°39'518.2
2017-Nov-16 10:55N 37°12' W 009°41'718.2
2017-Nov-16 10:31N 37°19' W 009°43'918.2
2017-Nov-16 10:01N 37°27' W 009°46'918.5
2017-Nov-16 09:31N 37°36' W 009°49'918.5
2017-Nov-16 09:01N 37°45' W 009°52'918.5
2017-Nov-16 08:31N 37°54' W 009°55'918.4
2017-Nov-16 08:00N 38°03' W 009°58'918.6
2017-Nov-16 07:31N 38°12' W 010°01'918.4
2017-Nov-16 07:01N 38°21' W 010°02'918.2
2017-Nov-16 06:30N 38°30' W 010°04'918.1
2017-Nov-16 06:00N 38°39' W 010°06'918.0
2017-Nov-16 05:31N 38°48' W 010°07'918.5
2017-Nov-16 05:01N 38°58' W 010°07'918.4
2017-Nov-16 04:31N 39°07' W 010°06'918.5
2017-Nov-16 04:01N 39°16' W 010°05'918.6
2017-Nov-16 03:31N 39°25' W 010°03'918.1
2017-Nov-16 03:00N 39°34' W 010°04'1718.3
2017-Nov-16 02:05N 39°51' W 010°03'2218.5
2017-Nov-16 00:52N 40°13' W 010°06'718.4
2017-Nov-16 00:30N 40°20' W 010°07'918.7
2017-Nov-16 00:00N 40°29' W 010°07'43717.6
2017-Nov-14 23:10N 47°24' W 006°59'6817.9
2017-Nov-14 19:22N 48°25' W 006°11'919.1
2017-Nov-14 18:53N 48°33' W 006°06'1718.9
2017-Nov-14 17:58N 48°48' W 005°52'918.4
2017-Nov-14 17:27N 48°55' W 005°43'918.6
2017-Nov-14 16:58N 49°00' W 005°31'918.3
2017-Nov-14 16:28N 49°05' W 005°19'917.7
2017-Nov-14 15:57N 49°09' W 005°07'817.4
2017-Nov-14 15:28N 49°13' W 004°56'817.1
2017-Nov-14 14:59N 49°17' W 004°45'816.8
2017-Nov-14 14:29N 49°21' W 004°34'816.7
2017-Nov-14 14:00N 49°25' W 004°23'1016.7
2017-Nov-14 13:26N 49°30' W 004°10'716.7
2017-Nov-14 13:00N 49°34' W 004°01'917.0
2017-Nov-14 12:30N 49°38' W 003°49'917.3
2017-Nov-14 12:00N 49°41' W 003°37'918.0
2017-Nov-14 11:30N 49°45' W 003°24'918.5
2017-Nov-14 11:00N 49°50' W 003°12'918.9
2017-Nov-14 10:31N 49°55' W 003°00'1019.2
2017-Nov-14 10:00N 49°59' W 002°46'1019.3
2017-Nov-14 09:29N 50°01' W 002°31'1518.9
2017-Nov-14 08:42N 50°02' W 002°08'418.6
2017-Nov-14 08:29N 50°02' W 002°02'917.9
2017-Nov-14 08:01N 50°00' W 001°49'917.4
2017-Nov-14 07:31N 49°58' W 001°36'816.8
2017-Nov-14 07:00N 49°56' W 001°23'816.3
2017-Nov-14 06:31N 49°54' W 001°11'815.6
2017-Nov-14 06:00N 49°50' W 001°00'815.8
2017-Nov-14 05:31N 49°46' W 000°50'816.1
2017-Nov-14 05:00N 49°41' W 000°41'815.9
2017-Nov-14 04:31N 49°38' W 000°29'713.9
2017-Nov-14 04:00N 49°35' W 000°20'2 5.0
2017-Nov-14 03:31N 49°33' W 000°16'1 2.3
2017-Nov-14 03:01N 49°34' W 000°15'510.7
2017-Nov-14 02:31N 49°31' W 000°08'611.1
2017-Nov-14 02:01N 49°30' E 000°01'5 9.8
2017-Nov-14 01:31N 49°28' E 000°07'1 1.6
2017-Nov-14 00:58N 49°28' E 000°09'0 0.0
2017-Nov-14 00:28N 49°28' E 000°09'0 0.0
2017-Nov-13 23:58N 49°28' E 000°09'0 0.0
2017-Nov-13 23:28N 49°28' E 000°09'0 0.0
2017-Nov-13 22:58N 49°28' E 000°09'0 0.0
2017-Nov-13 22:28N 49°28' E 000°09'0 0.0
2017-Nov-13 21:58N 49°28' E 000°09'0 0.0
2017-Nov-13 01:58N 49°28' E 000°09'0 0.0
2017-Nov-13 01:28N 49°28' E 000°09'0 0.0
2017-Nov-13 00:58N 49°28' E 000°09'0 0.0
2017-Nov-13 00:31N 49°28' E 000°09'0 0.0
2017-Nov-13 00:00N 49°28' E 000°09'0 0.0
2017-Nov-12 23:31N 49°28' E 000°09'0 0.0
2017-Nov-12 22:58N 49°28' E 000°09'0 0.0
2017-Nov-12 22:28N 49°28' E 000°09'0 0.0
2017-Nov-12 22:01N 49°28' E 000°09'0 0.0
2017-Nov-12 21:28N 49°28' E 000°09'0 0.0
2017-Nov-12 20:58N 49°28' E 000°09'0 0.0
2017-Nov-12 20:28N 49°28' E 000°09'0 0.0
2017-Nov-12 20:01N 49°28' E 000°09'0 0.0
2017-Nov-12 19:28N 49°28' E 000°09'0 0.0
2017-Nov-12 18:57N 49°28' E 000°09'0 0.0
2017-Nov-12 18:27N 49°28' E 000°09'0 0.0
2017-Nov-12 18:01N 49°28' E 000°09'0 0.0
2017-Nov-12 17:30N 49°28' E 000°09'0 0.0
2017-Nov-12 16:58N 49°28' E 000°09'0 0.0
2017-Nov-12 16:27N 49°28' E 000°09'0 0.0
2017-Nov-12 15:58N 49°28' E 000°09'0 0.0
2017-Nov-12 15:31N 49°28' E 000°09'0 0.0
2017-Nov-12 15:01N 49°28' E 000°09'0 0.0
2017-Nov-12 14:28N 49°28' E 000°09'0 0.0
2017-Nov-12 14:01N 49°28' E 000°09'0 0.0
2017-Nov-12 13:31N 49°28' E 000°09'0 0.0
2017-Nov-12 12:58N 49°28' E 000°09'0 0.0
2017-Nov-12 12:31N 49°28' E 000°09'0 0.0
2017-Nov-12 12:00N 49°28' E 000°09'0 0.0
2017-Nov-12 11:28N 49°28' E 000°09'0 0.0
2017-Nov-12 11:00N 49°28' E 000°09'0 0.0
2017-Nov-12 10:30N 49°28' E 000°09'0 0.0
2017-Nov-12 10:00N 49°28' E 000°09'0 0.0
2017-Nov-12 09:30N 49°28' E 000°09'0 0.0
2017-Nov-12 09:01N 49°28' E 000°09'0 0.0
2017-Nov-12 08:30N 49°28' E 000°09'0 0.0
2017-Nov-12 08:00N 49°28' E 000°09'0 0.0
2017-Nov-12 07:30N 49°28' E 000°09'0 0.0
2017-Nov-12 07:00N 49°28' E 000°09'0 0.0
2017-Nov-12 06:30N 49°28' E 000°09'0 0.0
2017-Nov-12 05:57N 49°28' E 000°09'0 0.0
2017-Nov-12 05:31N 49°28' E 000°09'0 0.0
2017-Nov-12 05:00N 49°28' E 000°09'0 0.0
2017-Nov-12 04:30N 49°28' E 000°09'0 0.0
2017-Nov-12 04:00N 49°28' E 000°09'0 0.0
2017-Nov-12 03:27N 49°28' E 000°09'0 0.0
2017-Nov-12 03:01N 49°28' E 000°09'0 0.0
2017-Nov-12 02:31N 49°28' E 000°09'0 0.0
2017-Nov-12 02:01N 49°28' E 000°09'0 0.0
2017-Nov-12 01:30N 49°28' E 000°09'0 0.0
2017-Nov-12 01:00N 49°28' E 000°09'0 0.0
2017-Nov-12 00:30N 49°28' E 000°09'0 0.0
2017-Nov-12 00:00N 49°28' E 000°09'0 0.0
2017-Nov-11 23:30N 49°28' E 000°09'0 0.0
2017-Nov-11 22:57N 49°28' E 000°09'0 0.0
2017-Nov-11 22:30N 49°28' E 000°09'0 0.0
2017-Nov-11 22:00N 49°28' E 000°09'0 0.0
2017-Nov-11 21:30N 49°28' E 000°09'0 0.0
2017-Nov-11 21:00N 49°28' E 000°09'0 0.0
2017-Nov-11 20:30N 49°28' E 000°09'0 0.0
2017-Nov-11 20:00N 49°28' E 000°09'0 0.0
2017-Nov-11 19:30N 49°28' E 000°09'0 0.0
2017-Nov-11 19:00N 49°28' E 000°09'0 0.0
2017-Nov-11 18:30N 49°28' E 000°09'0 0.0
2017-Nov-11 18:00N 49°28' E 000°09'0 0.0
2017-Nov-11 17:30N 49°28' E 000°09'0 0.0
2017-Nov-11 17:00N 49°28' E 000°09'0 0.0
2017-Nov-11 16:30N 49°28' E 000°09'0 0.0
2017-Nov-11 16:00N 49°28' E 000°09'0 0.0
2017-Nov-11 15:30N 49°28' E 000°09'0 0.0
2017-Nov-11 15:00N 49°28' E 000°09'0 0.0
2017-Nov-11 14:30N 49°28' E 000°09'0 0.0
2017-Nov-11 14:00N 49°28' E 000°09'0 0.0
2017-Nov-11 13:30N 49°28' E 000°09'0 0.0
2017-Nov-11 13:00N 49°28' E 000°09'0 0.0
2017-Nov-11 12:30N 49°28' E 000°09'0 0.0
2017-Nov-11 12:00N 49°28' E 000°09'0 0.0
2017-Nov-11 11:30N 49°28' E 000°09'0 0.0
2017-Nov-11 11:00N 49°28' E 000°09'0 0.0
2017-Nov-11 10:30N 49°28' E 000°09'0 0.0
2017-Nov-11 10:00N 49°28' E 000°09'0 0.0
2017-Nov-11 09:30N 49°28' E 000°09'0 0.0
2017-Nov-11 09:00N 49°28' E 000°09'0 0.0
2017-Nov-11 08:30N 49°28' E 000°09'0 0.0
2017-Nov-11 08:00N 49°28' E 000°09'0 0.0
2017-Nov-11 07:30N 49°28' E 000°09'0 0.0
2017-Nov-11 07:00N 49°28' E 000°09'0 0.0
2017-Nov-11 06:30N 49°28' E 000°09'0 0.0
2017-Nov-11 06:00N 49°28' E 000°09'0 0.0
2017-Nov-11 05:30N 49°28' E 000°09'0 0.0
2017-Nov-11 05:00N 49°28' E 000°09'0 0.0
2017-Nov-11 04:30N 49°28' E 000°09'0 0.0
2017-Nov-11 04:00N 49°28' E 000°09'0 0.0
2017-Nov-11 03:30N 49°28' E 000°09'0 0.0
2017-Nov-11 03:00N 49°28' E 000°09'0 0.0
2017-Nov-11 02:30N 49°28' E 000°09'0 0.0
2017-Nov-11 02:00N 49°28' E 000°09'0 0.1
2017-Nov-11 01:30N 49°28' E 000°09'0 0.2
2017-Nov-11 01:00N 49°27' E 000°09'5 9.4
2017-Nov-11 00:30N 49°30' E 000°02'510.6
2017-Nov-11 00:00N 49°32' W 000°05'4 9.0
2017-Nov-10 23:30N 49°36' W 000°07'4 8.5
2017-Nov-10 23:00N 49°40' W 000°08'612.6
2017-Nov-10 22:30N 49°47' W 000°08'510.2
2017-Nov-10 22:00N 49°52' W 000°07'510.2
2017-Nov-10 21:30N 49°57' W 000°06'510.2
2017-Nov-10 21:00N 50°02' W 000°06'510.2
2017-Nov-10 20:30N 50°07' W 000°05'510.3
2017-Nov-10 20:00N 50°12' W 000°05'510.6
2017-Nov-10 19:30N 50°17' W 000°04'510.9
2017-Nov-10 19:00N 50°23' W 000°04'510.4
2017-Nov-10 18:30N 50°28' W 000°02'510.5
2017-Nov-10 18:00N 50°30' E 000°06'510.4
2017-Nov-10 17:30N 50°31' E 000°13'510.3
2017-Nov-10 17:00N 50°33' E 000°21'5 9.9
2017-Nov-10 16:30N 50°34' E 000°29'5 9.9
2017-Nov-10 16:00N 50°36' E 000°36'510.0
2017-Nov-10 15:30N 50°38' E 000°43'5 9.8
2017-Nov-10 15:00N 50°41' E 000°49'5 9.2
2017-Nov-10 14:30N 50°44' E 000°55'5 9.4
2017-Nov-10 14:00N 50°46' E 001°01'5 9.8
2017-Nov-10 13:30N 50°49' E 001°08'610.2
2017-Nov-10 12:56N 50°53' E 001°15'511.4
2017-Nov-10 12:30N 50°56' E 001°20'612.0
2017-Nov-10 12:00N 51°01' E 001°27'612.3
2017-Nov-10 11:30N 51°05' E 001°33'612.0
2017-Nov-10 11:00N 51°10' E 001°40'611.5
2017-Nov-10 10:30N 51°14' E 001°46'511.0
2017-Nov-10 10:00N 51°19' E 001°49'510.1
2017-Nov-10 09:30N 51°24' E 001°51'5 9.5
2017-Nov-10 09:00N 51°29' E 001°51'3 6.6
2017-Nov-10 08:30N 51°32' E 001°50'3 6.9
2017-Nov-10 08:00N 51°35' E 001°48'4 9.0
2017-Nov-10 07:30N 51°39' E 001°46'4 8.4
2017-Nov-10 07:00N 51°44' E 001°45'4 8.2
2017-Nov-10 06:30N 51°48' E 001°44'5 9.0
2017-Nov-10 06:00N 51°51' E 001°39'4 8.5
2017-Nov-10 05:30N 51°53' E 001°33'4 8.8
2017-Nov-10 05:00N 51°56' E 001°28'611.7
2017-Nov-10 04:30N 51°56' E 001°19'2 4.4
2017-Nov-10 04:00N 51°58' E 001°17'0 0.0
2017-Nov-10 03:29N 51°58' E 001°17'0 0.0
2017-Nov-10 02:59N 51°58' E 001°17'0 0.0
2017-Nov-10 02:29N 51°58' E 001°17'0 0.0
2017-Nov-10 01:58N 51°58' E 001°17'0 0.0
2017-Nov-10 01:25N 51°58' E 001°17'0 0.0
2017-Nov-10 00:58N 51°58' E 001°17'0 0.0
2017-Nov-10 00:28N 51°58' E 001°17'0 0.0
2017-Nov-09 23:58N 51°58' E 001°17'0 0.0
2017-Nov-09 23:29N 51°58' E 001°17'0 0.0
2017-Nov-09 22:58N 51°58' E 001°17'0 0.0
2017-Nov-09 22:29N 51°58' E 001°17'0 0.0
2017-Nov-09 21:58N 51°58' E 001°17'0 0.0
2017-Nov-09 21:28N 51°58' E 001°17'0 0.0
2017-Nov-09 20:58N 51°58' E 001°17'0 0.0
2017-Nov-09 20:28N 51°58' E 001°17'0 0.0
2017-Nov-09 19:58N 51°58' E 001°17'0 0.0
2017-Nov-09 19:29N 51°58' E 001°17'0 0.0
2017-Nov-09 18:58N 51°58' E 001°17'0 0.0
2017-Nov-09 18:28N 51°58' E 001°17'0 0.0
2017-Nov-09 17:58N 51°58' E 001°17'0 0.0
2017-Nov-09 17:28N 51°58' E 001°17'0 0.0
2017-Nov-09 16:58N 51°58' E 001°17'0 0.0
2017-Nov-09 16:28N 51°58' E 001°17'0 0.0
2017-Nov-09 15:58N 51°58' E 001°17'0 0.0
2017-Nov-09 15:28N 51°58' E 001°17'0 0.0
2017-Nov-09 14:59N 51°58' E 001°17'0 0.0
2017-Nov-09 14:28N 51°58' E 001°17'0 0.0
2017-Nov-09 13:58N 51°58' E 001°17'0 0.0
2017-Nov-09 13:28N 51°58' E 001°17'0 0.0
2017-Nov-09 12:58N 51°58' E 001°17'0 0.0
2017-Nov-09 12:28N 51°58' E 001°17'0 0.0
2017-Nov-09 11:58N 51°58' E 001°17'0 0.0
2017-Nov-09 11:28N 51°58' E 001°17'0 0.0
2017-Nov-09 10:58N 51°58' E 001°17'0 0.0
2017-Nov-09 10:28N 51°58' E 001°17'0 0.0
2017-Nov-09 09:58N 51°58' E 001°17'0 0.0
2017-Nov-09 09:28N 51°58' E 001°17'0 0.0
2017-Nov-09 08:58N 51°58' E 001°17'0 0.0
2017-Nov-09 08:28N 51°58' E 001°17'0 0.0
2017-Nov-09 07:58N 51°58' E 001°17'0 0.0
2017-Nov-09 07:28N 51°58' E 001°17'0 0.0
2017-Nov-09 06:58N 51°58' E 001°17'0 0.0
2017-Nov-09 06:28N 51°58' E 001°17'0 0.0
2017-Nov-09 05:58N 51°58' E 001°17'0 0.0
2017-Nov-09 05:28N 51°58' E 001°17'0 0.0
2017-Nov-09 04:58N 51°58' E 001°17'0 0.0
2017-Nov-09 04:28N 51°58' E 001°17'0 0.0
2017-Nov-09 03:58N 51°58' E 001°17'0 0.0
2017-Nov-09 03:28N 51°58' E 001°17'0 0.0
2017-Nov-09 02:58N 51°58' E 001°17'0 0.0
2017-Nov-09 02:28N 51°58' E 001°17'0 0.0
2017-Nov-09 01:58N 51°58' E 001°17'0 0.0
2017-Nov-09 01:28N 51°58' E 001°17'0 0.0
2017-Nov-09 00:58N 51°58' E 001°17'0 0.0
2017-Nov-09 00:28N 51°58' E 001°17'0 0.0
2017-Nov-08 23:58N 51°58' E 001°17'0 0.0
2017-Nov-08 23:28N 51°58' E 001°17'0 0.0
2017-Nov-08 22:58N 51°58' E 001°17'0 0.0
2017-Nov-08 22:28N 51°58' E 001°17'0 0.0
2017-Nov-08 21:58N 51°58' E 001°17'0 0.0
2017-Nov-08 21:28N 51°58' E 001°17'0 0.0
2017-Nov-08 20:58N 51°58' E 001°17'0 0.0
2017-Nov-08 20:28N 51°58' E 001°17'0 0.0
2017-Nov-08 19:58N 51°58' E 001°17'0 0.0
2017-Nov-08 19:28N 51°58' E 001°17'0 0.0
2017-Nov-08 18:58N 51°58' E 001°17'0 0.0
2017-Nov-08 18:28N 51°58' E 001°17'0 0.0
2017-Nov-08 17:58N 51°58' E 001°17'0 0.0
2017-Nov-08 17:28N 51°58' E 001°17'0 0.0
2017-Nov-08 16:58N 51°58' E 001°17'0 0.0
2017-Nov-08 16:28N 51°58' E 001°17'0 0.0
2017-Nov-08 15:58N 51°58' E 001°17'0 0.0
2017-Nov-08 15:28N 51°58' E 001°17'0 0.0
2017-Nov-08 14:58N 51°58' E 001°17'0 0.0
2017-Nov-08 14:28N 51°58' E 001°17'0 0.0
2017-Nov-08 13:58N 51°58' E 001°17'0 0.0
2017-Nov-08 13:28N 51°58' E 001°17'0 0.0
2017-Nov-08 12:58N 51°58' E 001°17'0 0.0
2017-Nov-08 12:28N 51°58' E 001°17'0 0.0
2017-Nov-08 11:58N 51°58' E 001°17'0 0.0
2017-Nov-08 11:28N 51°58' E 001°17'0 0.0
2017-Nov-08 11:00N 51°58' E 001°17'1 1.5
2017-Nov-08 10:30N 51°57' E 001°18'2 3.8
2017-Nov-08 10:00N 51°56' E 001°19'611.8
2017-Nov-08 09:31N 51°56' E 001°29'4 9.0
2017-Nov-08 09:00N 51°53' E 001°34'5 9.1
2017-Nov-08 08:30N 51°51' E 001°41'3 5.4
2017-Nov-08 08:01N 51°52' E 001°45'3 6.1
2017-Nov-08 07:30N 51°50' E 001°49'817.0
2017-Nov-08 07:01N 51°41' E 001°50'1122.9
2017-Nov-08 06:31N 51°30' E 001°54'1222.8
2017-Nov-08 06:00N 51°23' E 002°08'918.6
2017-Nov-08 05:30N 51°22' E 002°23'817.0
2017-Nov-08 05:00N 51°23' E 002°36'612.5
2017-Nov-08 04:30N 51°24' E 002°46'612.7
2017-Nov-08 04:00N 51°25' E 002°56'714.6
2017-Nov-08 03:30N 51°24' E 003°08'713.9
2017-Nov-08 03:00N 51°24' E 003°19'612.9
2017-Nov-08 02:30N 51°25' E 003°29'5 9.4
2017-Nov-08 02:00N 51°26' E 003°36'4 8.4
2017-Nov-08 01:30N 51°25' E 003°43'611.3
2017-Nov-08 01:00N 51°21' E 003°49'611.3
2017-Nov-08 00:30N 51°24' E 003°57'3 6.4
2017-Nov-08 00:00N 51°24' E 004°02'5 9.2
2017-Nov-07 23:30N 51°23' E 004°09'4 8.2
2017-Nov-07 23:00N 51°21' E 004°15'3 6.6
2017-Nov-07 22:30N 51°18' E 004°16'1 1.1
2017-Nov-07 22:00N 51°17' E 004°15'0 0.0
2017-Nov-07 21:30N 51°17' E 004°15'0 0.0
2017-Nov-07 21:00N 51°17' E 004°15'0 0.0
2017-Nov-07 20:24N 51°17' E 004°15'0 0.0
2017-Nov-07 20:00N 51°17' E 004°15'0 0.0
2017-Nov-07 19:30N 51°17' E 004°15'0 0.0
2017-Nov-07 18:57N 51°17' E 004°15'0 0.0
2017-Nov-07 18:30N 51°17' E 004°15'0 0.0
2017-Nov-07 18:00N 51°17' E 004°15'0 0.0
2017-Nov-07 17:30N 51°17' E 004°15'0 0.0
2017-Nov-07 17:00N 51°17' E 004°15'0 0.0
2017-Nov-07 16:30N 51°17' E 004°15'0 0.0
2017-Nov-07 15:57N 51°17' E 004°15'0 0.0
2017-Nov-07 15:24N 51°17' E 004°15'0 0.0
2017-Nov-07 15:00N 51°17' E 004°15'0 0.0
2017-Nov-07 14:30N 51°17' E 004°15'0 0.0
2017-Nov-07 14:00N 51°17' E 004°15'0 0.0
2017-Nov-07 13:30N 51°17' E 004°15'0 0.0
2017-Nov-07 13:00N 51°17' E 004°15'0 0.0
2017-Nov-07 12:30N 51°17' E 004°15'0 0.0
2017-Nov-07 12:00N 51°17' E 004°15'0 0.0
2017-Nov-07 11:30N 51°17' E 004°15'0 0.0
2017-Nov-07 11:00N 51°17' E 004°15'0 0.0
2017-Nov-07 10:30N 51°17' E 004°15'0 0.0
2017-Nov-07 10:00N 51°17' E 004°15'0 0.0
2017-Nov-07 09:27N 51°17' E 004°15'0 0.0
2017-Nov-07 09:00N 51°17' E 004°15'0 0.0
2017-Nov-07 08:30N 51°17' E 004°15'0 0.0
2017-Nov-07 08:00N 51°17' E 004°15'0 0.0
2017-Nov-07 07:30N 51°17' E 004°15'0 0.0
2017-Nov-07 07:00N 51°17' E 004°15'0 0.0
2017-Nov-07 06:30N 51°17' E 004°15'0 0.0
2017-Nov-07 06:00N 51°17' E 004°15'0 0.0
2017-Nov-07 05:30N 51°17' E 004°15'0 0.0
2017-Nov-07 05:00N 51°17' E 004°15'0 0.0
2017-Nov-07 04:30N 51°17' E 004°15'0 0.0
2017-Nov-07 04:00N 51°17' E 004°15'0 0.0
2017-Nov-07 03:30N 51°17' E 004°15'0 0.0
2017-Nov-07 03:00N 51°17' E 004°15'0 0.0
2017-Nov-07 02:27N 51°17' E 004°15'0 0.0
2017-Nov-07 02:00N 51°17' E 004°15'0 0.0
2017-Nov-07 01:30N 51°17' E 004°15'0 0.0
2017-Nov-07 01:00N 51°17' E 004°15'  

Dump ship's entire track history